createdAt,value
2023-10-08T00:04:48.627Z,44.11
2023-10-08T00:09:53.765Z,43.90
2023-10-08T00:15:00.915Z,43.92
2023-10-08T00:20:06.087Z,44.02
2023-10-08T00:25:12.730Z,43.70
2023-10-08T00:30:19.068Z,43.81
2023-10-08T00:35:23.541Z,43.79
2023-10-08T00:40:26.873Z,43.60
2023-10-08T00:45:32.959Z,43.72
2023-10-08T00:50:44.174Z,43.60
2023-10-08T00:55:54.421Z,43.82
2023-10-08T01:01:00.758Z,43.66
2023-10-08T01:06:05.635Z,43.71
2023-10-08T01:11:23.121Z,43.62
2023-10-08T01:16:28.173Z,43.63
2023-10-08T01:21:40.935Z,43.60
2023-10-08T01:26:46.429Z,43.47
2023-10-08T01:31:50.802Z,43.56
2023-10-08T01:36:53.694Z,43.56
2023-10-08T01:41:57.853Z,43.43
2023-10-08T01:47:00.953Z,43.62
2023-10-08T01:52:08.523Z,43.55
2023-10-08T01:57:13.548Z,43.45
2023-10-08T02:02:16.886Z,43.31
2023-10-08T02:07:19.790Z,43.34
2023-10-08T02:12:26.489Z,43.46
2023-10-08T02:17:30.401Z,43.46
2023-10-08T02:22:34.009Z,43.23
2023-10-08T02:27:38.978Z,43.16
2023-10-08T02:32:43.912Z,43.25
2023-10-08T02:37:47.799Z,43.09
2023-10-08T02:42:51.964Z,43.06
2023-10-08T02:47:55.964Z,43.28
2023-10-08T02:53:04.685Z,43.04
2023-10-08T02:58:12.716Z,43.26
2023-10-08T03:03:17.678Z,43.22
2023-10-08T03:08:22.852Z,42.95
2023-10-08T03:13:27.817Z,42.98
2023-10-08T03:18:37.444Z,42.91
2023-10-08T03:23:47.081Z,42.93
2023-10-08T03:28:58.602Z,42.67
2023-10-08T03:34:01.593Z,42.76
2023-10-08T03:39:14.209Z,43.00
2023-10-08T03:44:18.932Z,42.76
2023-10-08T03:49:27.311Z,42.98
2023-10-08T03:54:35.257Z,42.84
2023-10-08T03:59:42.172Z,42.48
2023-10-08T04:04:53.061Z,42.83
2023-10-08T04:10:18.449Z,42.61
2023-10-08T04:15:22.681Z,42.52
2023-10-08T04:20:39.928Z,42.63
2023-10-08T04:25:45.041Z,42.62
2023-10-08T04:30:53.016Z,42.55
2023-10-08T04:35:57.108Z,42.39
2023-10-08T04:41:03.614Z,42.43
2023-10-08T04:46:20.381Z,42.42
2023-10-08T04:51:24.135Z,42.48
2023-10-08T04:56:29.602Z,42.60
2023-10-08T05:01:48.407Z,42.37
2023-10-08T05:07:18.072Z,42.21
2023-10-08T05:12:38.779Z,42.22
2023-10-08T05:17:57.957Z,42.25
2023-10-08T05:23:17.180Z,42.35
2023-10-08T05:28:25.675Z,42.18
2023-10-08T05:33:50.206Z,42.19
2023-10-08T05:39:01.871Z,42.12
2023-10-08T05:44:25.238Z,42.07
2023-10-08T05:49:55.448Z,42.04
2023-10-08T05:55:16.304Z,42.01
2023-10-08T06:00:43.425Z,41.91
2023-10-08T06:06:03.897Z,41.90
2023-10-08T06:11:18.572Z,41.84
2023-10-08T06:16:42.650Z,41.81
2023-10-08T06:21:46.978Z,41.79
2023-10-08T06:26:50.704Z,41.65
2023-10-08T06:31:56.363Z,41.62
2023-10-08T06:37:02.691Z,41.79
2023-10-08T06:42:06.268Z,41.56
2023-10-08T06:47:10.845Z,41.64
2023-10-08T06:52:16.761Z,41.66
2023-10-08T06:57:21.587Z,41.50
2023-10-08T07:02:28.234Z,41.34
2023-10-08T07:07:33.250Z,41.35
2023-10-08T07:12:36.686Z,41.45
2023-10-08T07:17:41.692Z,41.40
2023-10-08T07:22:46.105Z,41.44
2023-10-08T07:27:49.108Z,41.46
2023-10-08T07:32:52.484Z,41.60
2023-10-08T07:37:56.891Z,41.42
2023-10-08T07:43:09.417Z,41.24
2023-10-08T07:48:12.425Z,41.52
2023-10-08T07:53:19.813Z,41.62
2023-10-08T07:58:23.215Z,41.59
2023-10-08T08:03:26.249Z,41.43
2023-10-08T08:08:30.555Z,41.40
2023-10-08T08:13:34.828Z,41.60
2023-10-08T08:18:39.386Z,41.42
2023-10-08T08:23:49.025Z,41.65
2023-10-08T08:28:52.539Z,41.48
2023-10-08T08:34:00.058Z,41.49
2023-10-08T08:39:09.776Z,41.56
2023-10-08T08:44:17.028Z,41.37
2023-10-08T08:49:20.454Z,41.39
2023-10-08T08:54:25.421Z,41.54
2023-10-08T08:59:31.319Z,41.56
2023-10-08T09:04:38.964Z,41.46
2023-10-08T09:09:45.872Z,41.58
2023-10-08T09:14:49.228Z,41.59
2023-10-08T09:19:56.075Z,41.70
2023-10-08T09:25:00.795Z,41.65
2023-10-08T09:30:09.367Z,41.70
2023-10-08T09:35:16.846Z,41.58
2023-10-08T09:40:22.588Z,41.59
2023-10-08T09:45:29.468Z,41.57
2023-10-08T09:50:37.116Z,41.66
2023-10-08T09:55:48.895Z,41.59
2023-10-08T10:00:54.305Z,41.72
2023-10-08T10:06:04.774Z,41.80
2023-10-08T10:11:10.147Z,41.86
2023-10-08T10:16:20.320Z,41.56
2023-10-08T10:21:30.136Z,41.59
2023-10-08T10:26:38.224Z,41.55
2023-10-08T10:31:45.883Z,41.72
2023-10-08T10:36:50.946Z,41.56
2023-10-08T10:41:59.199Z,41.98
2023-10-08T10:47:27.319Z,41.82
2023-10-08T10:52:45.565Z,41.62
2023-10-08T10:58:04.091Z,41.73
2023-10-08T11:03:17.361Z,42.03
2023-10-08T11:08:24.125Z,42.01
2023-10-08T11:13:38.293Z,41.86
2023-10-08T11:18:45.532Z,41.73
2023-10-08T11:23:53.982Z,41.87
2023-10-08T11:29:01.706Z,42.08
2023-10-08T11:34:10.279Z,41.86
2023-10-08T11:39:22.683Z,41.76
2023-10-08T11:44:31.538Z,41.90
2023-10-08T11:49:37.689Z,41.99
2023-10-08T11:54:43.271Z,41.98
2023-10-08T11:59:48.113Z,41.96
2023-10-08T12:04:51.230Z,41.89
2023-10-08T12:09:55.359Z,41.99
2023-10-08T12:15:00.808Z,41.98
2023-10-08T12:20:13.417Z,41.89
2023-10-08T12:25:16.341Z,41.96
2023-10-08T12:30:31.527Z,41.99
2023-10-08T12:35:34.559Z,41.99
2023-10-08T12:40:48.536Z,42.02
2023-10-08T12:45:57.673Z,42.07
2023-10-08T12:51:01.839Z,42.01
2023-10-08T12:56:07.587Z,41.94
2023-10-08T13:01:12.355Z,42.06
2023-10-08T13:06:22.978Z,41.89
2023-10-08T13:11:28.033Z,41.84
2023-10-08T13:16:32.516Z,42.02
2023-10-08T13:21:37.453Z,41.75
2023-10-08T13:26:42.564Z,41.99
2023-10-08T13:31:47.587Z,42.11
2023-10-08T13:36:51.636Z,41.83
2023-10-08T13:41:58.054Z,41.82
2023-10-08T13:47:06.579Z,41.82
2023-10-08T13:52:09.497Z,42.08
2023-10-08T13:57:16.055Z,42.04
2023-10-08T14:02:22.895Z,41.98
2023-10-08T14:07:26.155Z,41.91
2023-10-08T14:12:29.025Z,41.92
2023-10-08T14:17:44.241Z,41.90
2023-10-08T14:22:48.829Z,42.01
2023-10-08T14:27:54.069Z,41.99
2023-10-08T14:32:59.325Z,41.89
2023-10-08T14:38:16.914Z,41.80
2023-10-08T14:43:23.916Z,41.72
2023-10-08T14:48:30.785Z,41.44
2023-10-08T14:53:35.122Z,41.54
2023-10-08T14:58:38.158Z,40.71
2023-10-08T15:03:42.617Z,39.25
2023-10-08T15:08:45.663Z,34.97
2023-10-08T15:13:50.908Z,34.34
2023-10-08T15:18:57.408Z,34.13
2023-10-08T15:24:07.672Z,34.55
2023-10-08T15:29:10.929Z,37.21
2023-10-08T15:34:24.897Z,38.77
2023-10-08T15:39:35.758Z,38.92
2023-10-08T15:44:38.692Z,39.55
2023-10-08T15:49:42.901Z,39.22
2023-10-08T15:54:46.961Z,39.44
2023-10-08T15:59:50.886Z,39.23
2023-10-08T16:04:55.417Z,39.40
2023-10-08T16:09:58.290Z,39.79
2023-10-08T16:15:01.314Z,39.44
2023-10-08T16:20:14.958Z,39.90
2023-10-08T16:25:19.287Z,40.22
2023-10-08T16:30:24.469Z,40.51
2023-10-08T16:35:29.505Z,41.16
2023-10-08T16:40:32.668Z,40.95
2023-10-08T16:45:36.485Z,41.09
2023-10-08T16:50:42.413Z,41.50
2023-10-08T16:55:46.678Z,41.68
2023-10-08T17:00:52.100Z,41.87
2023-10-08T17:05:56.478Z,42.39
2023-10-08T17:10:59.403Z,42.52
2023-10-08T17:16:02.408Z,42.36
2023-10-08T17:21:07.741Z,42.43
2023-10-08T17:26:11.684Z,42.61
2023-10-08T17:31:14.597Z,43.05
2023-10-08T17:36:18.845Z,42.76
2023-10-08T17:41:22.416Z,43.09
2023-10-08T17:46:27.392Z,43.03
2023-10-08T17:51:31.748Z,43.33
2023-10-08T17:56:35.072Z,43.53
2023-10-08T18:01:39.232Z,43.36
2023-10-08T18:06:44.175Z,43.77
2023-10-08T18:11:47.210Z,43.60
2023-10-08T18:16:50.140Z,43.62
2023-10-08T18:21:54.826Z,44.00
2023-10-08T18:26:57.810Z,43.98
2023-10-08T18:32:01.572Z,44.32
2023-10-08T18:37:06.254Z,44.50
2023-10-08T18:42:09.481Z,44.41
2023-10-08T18:47:12.691Z,44.60
2023-10-08T18:52:16.907Z,44.65
2023-10-08T18:57:20.891Z,44.59
2023-10-08T19:02:23.802Z,44.41
2023-10-08T19:07:28.996Z,44.71
2023-10-08T19:12:32.515Z,44.66
2023-10-08T19:17:35.474Z,44.86
2023-10-08T19:22:41.302Z,45.17
2023-10-08T19:27:45.020Z,45.27
2023-10-08T19:32:48.621Z,45.02
2023-10-08T19:37:53.134Z,45.16
2023-10-08T19:42:56.020Z,45.41
2023-10-08T19:47:58.949Z,45.35
2023-10-08T19:53:05.658Z,45.65
2023-10-08T19:58:08.571Z,45.83
2023-10-08T20:03:11.921Z,45.67
2023-10-08T20:08:17.086Z,45.57
2023-10-08T20:13:21.874Z,45.93
2023-10-08T20:18:25.110Z,45.99
2023-10-08T20:23:30.773Z,46.09
2023-10-08T20:28:33.747Z,45.92
2023-10-08T20:33:36.713Z,46.10
2023-10-08T20:38:41.320Z,46.07
2023-10-08T20:43:44.418Z,46.13
2023-10-08T20:48:48.765Z,46.25
2023-10-08T20:53:57.341Z,46.16
2023-10-08T20:59:00.387Z,46.22
2023-10-08T21:04:03.336Z,46.28
2023-10-08T21:09:16.661Z,46.60
2023-10-08T21:14:19.724Z,46.45
2023-10-08T21:19:22.732Z,46.70
2023-10-08T21:24:27.103Z,46.64
2023-10-08T21:29:30.210Z,46.44
2023-10-08T21:34:33.056Z,46.73
2023-10-08T21:39:38.514Z,46.53
2023-10-08T21:44:41.586Z,46.77
2023-10-08T21:49:44.454Z,46.64
2023-10-08T21:54:53.432Z,46.45
2023-10-08T21:59:56.367Z,46.73
2023-10-08T22:04:59.493Z,46.67
2023-10-08T22:10:06.222Z,46.87
2023-10-08T22:15:17.252Z,47.01
2023-10-08T22:20:35.566Z,46.89
2023-10-08T22:25:40.079Z,46.69
2023-10-08T22:30:43.855Z,46.77
2023-10-08T22:35:48.935Z,46.81
2023-10-08T22:41:16.271Z,46.80
2023-10-08T22:46:25.705Z,47.00
2023-10-08T22:51:29.363Z,46.80
2023-10-08T22:56:34.070Z,46.86
2023-10-08T23:01:39.654Z,46.84
2023-10-08T23:06:42.947Z,46.79
2023-10-08T23:11:48.826Z,46.94
2023-10-08T23:16:52.405Z,46.94
2023-10-08T23:21:57.691Z,46.83
2023-10-08T23:27:03.441Z,46.82
2023-10-08T23:32:09.004Z,46.95
2023-10-08T23:37:23.022Z,46.86
2023-10-08T23:42:33.025Z,46.94
2023-10-08T23:47:47.133Z,46.87
2023-10-08T23:52:53.473Z,46.60
2023-10-08T23:58:09.829Z,46.63
